Aérodrome :
LOGIN :

S'inscrire | Disclaimer

   EN    FR    IT 

 










Légende :    VFR   VFR Marginal   IFR   IFR Intensif   IFR Très Intensif
Visi : 
Plafond : 
>= 8 km
>= 3000ft
5 à 8 km
1000 à 3000 ft
1500m à 5 km
500 à 1000 ft
800 à 1500m
200 à 500 ft
< 800m
< 200 ft
Symboles :   Orages  Brouillard  Fortes neiges  Fortes précipitations  Vent > 20 kt
SIGMETs :   Divers  Orages  Givrage  Turbulence  Onde Orograph.  Cendres Volcan.






- Altitude de l'aérodrome : 138 ft
- Code IATA : BIO


LEBB - Bilbao

DERNIER METAR :
  • 131900Z 33004KT 9999 FEW029 OVC042 21/16 Q1019 NOSIG

METARs EXPIRÉS :
  • 131830Z 32003KT 280V360 9999 FEW029 OVC043 21/16 Q1019 NOSIG
  • 131800Z 32005KT 280V030 9999 FEW029 OVC042 21/16 Q1018 NOSIG
  • 131730Z 32006KT 280V350 9999 FEW029 OVC041 21/16 Q1018 NOSIG
  • 131700Z 33006KT 290V360 9999 FEW029 OVC042 22/16 Q1018 NOSIG
  • 131630Z 32006KT 280V010 9999 FEW029 OVC040 22/16 Q1018 NOSIG

TAF TAF LEBB
Valide du 13 à 18h jusqu'au 14 à 18h UTC


131700Z 1318/1418 VRB05KT 9999 SCT030 TX26/1412Z TN15/1405Z
TEMPO 1318/1319 32010KT
PROB30
TEMPO 1400/1406 3000 BR
TEMPO 1412/1418 36010KT



MET'MAP, la Météo Aéronautique d'un coup d'oeil ! - Copyright ORBIFLY Décembre 2007 - Disclaimer

ORBIFLY MET'MAP TEAM :

Programmation & Développement : Alexandra Zaïnal
Sur une idée originale de : Baudouin d'Aumeries
Assistance à la programmation : Marc-Olivier Méhu
Soutien technique & logistique : Manuel Goepfert

Contact : metmap@orbifly.com




SOURCES & CREDITS :

   NOAA